Time;durP1;ratioP1;P1;durP2;ratioP2;P2;SDS_P1;SDS_P2;PMS_P1;PMS_P2;Temp;Humidity;BMP_temperature;BMP_pressure;BME280_temperature;BME280_humidity;BME280_pressure;Samples;Min_cycle;Max_cycle;Signal;HPM_P1;HPM_P2
2024/03/22 00:00:31;;;;;;;45.40;25.00;;;;;;;4.99;91.23;101633.48;107644;1251;99185;-64
2024/03/22 00:03:20;;;;;;;43.30;23.80;;;;;;;4.97;91.34;101627.38;107542;1251;114569;-63
2024/03/22 00:05:48;;;;;;;41.10;23.70;;;;;;;4.96;91.61;101631.02;107626;1254;108662;-62
2024/03/22 00:08:16;;;;;;;46.60;24.60;;;;;;;4.94;91.42;101634.11;107569;1256;107125;-64
2024/03/22 00:10:44;;;;;;;42.80;23.70;;;;;;;4.95;91.40;101637.83;107558;1254;99175;-66
2024/03/22 00:13:12;;;;;;;40.80;22.30;;;;;;;4.95;91.11;101638.69;107607;1254;100880;-63
2024/03/22 00:15:42;;;;;;;44.10;25.10;;;;;;;4.98;91.23;101637.99;107584;1252;113925;-63
2024/03/22 00:18:10;;;;;;;44.20;24.30;;;;;;;5.01;91.33;101638.93;107589;1256;107951;-63
2024/03/22 00:20:38;;;;;;;45.70;23.80;;;;;;;5.04;91.12;101636.30;107593;1256;106681;-63
2024/03/22 00:23:06;;;;;;;45.90;24.60;;;;;;;5.05;90.96;101632.84;107642;1251;99077;-64
2024/03/22 00:25:34;;;;;;;42.80;25.60;;;;;;;5.09;90.99;101632.67;107565;1251;99062;-63
2024/03/22 00:28:02;;;;;;;39.60;22.70;;;;;;;5.11;91.08;101636.42;107571;1251;113375;-63
2024/03/22 00:30:30;;;;;;;37.70;21.30;;;;;;;5.13;90.79;101639.73;107571;1254;107228;-62
2024/03/22 00:32:58;;;;;;;42.40;23.30;;;;;;;5.12;90.55;101640.47;107584;1251;107530;-62
2024/03/22 00:35:26;;;;;;;39.80;21.70;;;;;;;5.15;90.78;101638.22;107539;1251;99863;-63
2024/03/22 00:37:54;;;;;;;47.40;23.60;;;;;;;5.17;90.80;101638.81;107596;1251;99826;-62
2024/03/22 00:40:22;;;;;;;39.40;22.80;;;;;;;5.15;90.84;101634.45;107584;1251;112785;-63
2024/03/22 00:42:50;;;;;;;46.80;24.20;;;;;;;5.14;90.60;101633.45;107567;1251;108799;-63
2024/03/22 00:45:18;;;;;;;39.20;24.40;;;;;;;5.15;90.75;101631.45;107574;1254;108810;-63
2024/03/22 00:47:46;;;;;;;41.20;23.10;;;;;;;5.16;90.84;101629.08;107570;1254;99192;-63
2024/03/22 00:50:14;;;;;;;38.70;21.90;;;;;;;5.15;91.32;101630.88;107553;1254;99192;-63
2024/03/22 00:52:42;;;;;;;42.80;20.80;;;;;;;5.12;90.98;101632.11;107591;1254;112487;-65
2024/03/22 00:55:10;;;;;;;37.60;22.00;;;;;;;5.10;91.07;101633.65;107521;1254;107841;-65
2024/03/22 00:57:38;;;;;;;38.80;22.30;;;;;;;5.10;91.18;101636.35;107527;1256;107156;-63
2024/03/22 01:00:07;;;;;;;37.10;20.60;;;;;;;5.11;91.29;101631.98;107509;1254;99173;-64
2024/03/22 01:02:35;;;;;;;39.20;22.10;;;;;;;5.13;91.48;101629.05;107579;1256;99096;-67
2024/03/22 01:05:04;;;;;;;38.10;22.70;;;;;;;5.14;91.33;101624.58;107383;1254;112890;-63
2024/03/22 01:07:32;;;;;;;40.10;22.80;;;;;;;5.17;91.45;101627.96;107604;1254;108509;-63
2024/03/22 01:10:04;;;;;;;42.30;23.70;;;;;;;5.21;91.64;101624.02;107603;1253;107930;-63
2024/03/22 01:12:32;;;;;;;41.20;21.90;;;;;;;5.23;91.71;101621.05;107653;1254;99255;-62
2024/03/22 01:15:00;;;;;;;44.20;24.30;;;;;;;5.24;91.40;101622.83;107614;1254;99736;-63
2024/03/22 01:17:28;;;;;;;46.10;23.70;;;;;;;5.25;91.42;101617.61;107568;1253;112559;-64
2024/03/22 01:19:56;;;;;;;41.30;22.00;;;;;;;5.27;91.34;101619.44;107523;1254;109577;-64
2024/03/22 01:22:24;;;;;;;46.50;23.10;;;;;;;5.30;91.62;101614.49;107538;1251;108034;-64
2024/03/22 01:24:53;;;;;;;41.80;22.40;;;;;;;5.32;91.64;101610.27;107600;1251;99218;-64
2024/03/22 01:27:21;;;;;;;40.80;22.20;;;;;;;5.35;91.36;101610.67;107508;1254;100406;-64
2024/03/22 01:29:49;;;;;;;47.80;24.00;;;;;;;5.37;91.34;101609.17;107587;1254;114299;-64
2024/03/22 01:32:17;;;;;;;45.00;23.50;;;;;;;5.33;91.22;101602.59;107456;1253;108536;-64
2024/03/22 01:34:45;;;;;;;43.30;23.10;;;;;;;5.26;90.79;101595.46;107402;1254;107665;-63
2024/03/22 01:37:13;;;;;;;39.20;22.20;;;;;;;5.25;91.12;101593.74;107511;1254;99208;-63
2024/03/22 01:39:42;;;;;;;38.20;22.90;;;;;;;5.27;91.20;101587.27;107518;1254;99067;-63
2024/03/22 01:42:10;;;;;;;43.20;23.10;;;;;;;5.29;91.07;101588.23;107413;1254;112327;-63
2024/03/22 01:44:38;;;;;;;38.50;22.40;;;;;;;5.28;90.93;101581.86;107514;1254;108020;-63
2024/03/22 01:47:07;;;;;;;43.50;22.90;;;;;;;5.27;90.95;101580.33;107511;1254;108839;-64
2024/03/22 01:49:35;;;;;;;41.00;22.20;;;;;;;5.30;91.29;101577.13;107504;1254;99071;-61
2024/03/22 01:52:03;;;;;;;40.90;23.40;;;;;;;5.33;91.28;101576.59;107645;1254;99913;-64
2024/03/22 01:54:31;;;;;;;34.20;22.00;;;;;;;5.37;91.41;101575.20;107609;1254;113116;-65
2024/03/22 01:57:01;;;;;;;41.40;24.50;;;;;;;5.39;91.32;101574.72;107559;1251;107914;-67
2024/03/22 01:59:30;;;;;;;46.80;24.20;;;;;;;5.40;91.13;101575.34;107618;1251;108432;-65
2024/03/22 02:01:59;;;;;;;39.80;23.40;;;;;;;5.42;91.15;101578.64;107580;1250;99886;-64
2024/03/22 02:04:27;;;;;;;39.40;21.90;;;;;;;5.45;91.31;101580.21;107551;1251;99712;-64
2024/03/22 02:06:55;;;;;;;34.40;20.80;;;;;;;5.49;91.09;101585.21;107566;1251;112995;-64
2024/03/22 02:09:24;;;;;;;37.00;22.10;;;;;;;5.50;91.18;101584.05;107509;1254;108110;-63
2024/03/22 02:11:52;;;;;;;37.90;21.50;;;;;;;5.53;90.99;101587.11;107615;1256;106816;-63
2024/03/22 02:14:20;;;;;;;42.50;22.70;;;;;;;5.55;91.14;101592.56;107586;1253;99074;-63
2024/03/22 02:16:48;;;;;;;37.20;20.80;;;;;;;5.56;91.00;101590.85;107621;1253;99749;-62
2024/03/22 02:19:16;;;;;;;34.60;19.70;;;;;;;5.56;90.75;101588.94;107650;1250;113723;-65
2024/03/22 02:21:44;;;;;;;35.60;20.30;;;;;;;5.59;90.93;101589.83;107578;1251;107230;-65
2024/03/22 02:24:13;;;;;;;36.40;20.10;;;;;;;5.60;90.76;101591.35;107509;1251;108823;-64
2024/03/22 02:26:41;;;;;;;35.50;20.80;;;;;;;5.59;90.65;101589.64;107548;1253;99093;-63
2024/03/22 02:29:09;;;;;;;35.70;19.90;;;;;;;5.57;90.60;101590.45;107502;1251;100876;-63
2024/03/22 02:31:37;;;;;;;45.40;22.80;;;;;;;5.58;90.83;101587.55;107487;1251;112869;-63
2024/03/22 02:34:05;;;;;;;35.60;19.80;;;;;;;5.60;90.68;101587.42;107542;1251;108657;-63
2024/03/22 02:36:33;;;;;;;33.70;19.60;;;;;;;5.60;90.63;101589.58;107473;1254;107239;-64
2024/03/22 02:39:01;;;;;;;31.60;19.30;;;;;;;5.61;90.71;101593.23;107491;1251;99281;-63
2024/03/22 02:41:29;;;;;;;33.50;18.90;;;;;;;5.64;90.74;101591.13;107511;1251;99243;-61
2024/03/22 02:43:57;;;;;;;32.00;18.50;;;;;;;5.66;90.68;101593.20;107542;1254;112892;-66
2024/03/22 02:46:25;;;;;;;36.60;18.90;;;;;;;5.67;90.44;101584.79;107644;1253;107080;-65
2024/03/22 02:48:53;;;;;;;37.20;20.40;;;;;;;5.69;90.39;101583.96;107600;1254;106040;-66
2024/03/22 02:51:21;;;;;;;36.40;18.90;;;;;;;5.71;90.49;101584.55;107509;1253;99204;-68
2024/03/22 02:53:50;;;;;;;38.20;19.60;;;;;;;5.71;90.31;101585.60;107557;1254;99250;-64
2024/03/22 02:56:18;;;;;;;35.60;20.80;;;;;;;5.71;90.18;101584.56;107516;1254;112099;-63
2024/03/22 02:58:46;;;;;;;40.00;19.40;;;;;;;5.71;90.07;101584.92;107540;1254;108668;-66
2024/03/22 03:01:13;;;;;;;35.00;19.30;;;;;;;5.73;90.23;101586.77;107543;1253;108134;-66
2024/03/22 03:03:42;;;;;;;33.80;20.10;;;;;;;5.76;90.47;101589.77;107636;1253;99170;-66
2024/03/22 03:06:12;;;;;;;32.00;19.00;;;;;;;5.79;90.63;101585.01;107432;1251;99705;-66
2024/03/22 03:08:41;;;;;;;34.40;19.00;;;;;;;5.81;90.61;101583.65;107577;1253;112575;-65
2024/03/22 03:11:09;;;;;;;29.80;18.50;;;;;;;5.81;90.44;101584.53;107574;1253;109044;-64
2024/03/22 03:13:37;;;;;;;34.40;19.00;;;;;;;5.80;90.29;101584.75;107645;1254;107256;-64
2024/03/22 03:16:05;;;;;;;32.20;17.50;;;;;;;5.77;90.17;101583.81;107595;1252;99307;-67
2024/03/22 03:18:33;;;;;;;31.20;19.00;;;;;;;5.76;89.90;101581.95;107655;1254;99061;-65
2024/03/22 03:21:01;;;;;;;29.30;17.90;;;;;;;5.74;89.71;101579.56;107606;1257;113356;-63
2024/03/22 03:23:29;;;;;;;34.00;19.30;;;;;;;5.74;89.82;101583.67;107645;1253;107329;-62
2024/03/22 03:25:57;;;;;;;31.00;18.90;;;;;;;5.74;89.78;101579.91;107607;1253;107746;-62
2024/03/22 03:28:27;;;;;;;40.20;20.80;;;;;;;5.72;89.51;101582.14;107519;1256;99200;-63
2024/03/22 03:30:55;;;;;;;38.60;19.60;;;;;;;5.70;89.47;101578.52;107598;1256;99188;-62
2024/03/22 03:33:24;;;;;;;36.10;21.00;;;;;;;5.69;89.40;101576.47;107574;1253;112644;-62
2024/03/22 03:35:52;;;;;;;40.20;21.80;;;;;;;5.69;89.62;101580.04;107617;1251;108974;-64
2024/03/22 03:38:21;;;;;;;41.40;21.10;;;;;;;5.66;89.31;101578.08;107561;1253;106733;-65
2024/03/22 03:40:49;;;;;;;42.30;22.00;;;;;;;5.66;89.41;101582.88;107634;1254;99191;-65
2024/03/22 03:43:17;;;;;;;42.10;21.10;;;;;;;5.67;89.73;101580.88;107662;1255;99095;-66
2024/03/22 03:45:45;;;;;;;44.30;22.30;;;;;;;5.68;89.72;101582.25;107623;1255;114860;-65
2024/03/22 03:48:13;;;;;;;35.10;20.00;;;;;;;5.67;89.40;101584.95;107614;1254;107362;-63
2024/03/22 03:50:41;;;;;;;33.60;18.20;;;;;;;5.63;89.19;101584.40;107567;1251;108213;-62
2024/03/22 03:53:12;;;;;;;30.50;17.10;;;;;;;5.61;89.12;101587.73;107587;1253;99426;-62
2024/03/22 03:55:40;;;;;;;33.40;18.60;;;;;;;5.59;89.10;101586.80;107452;1254;99125;-63
2024/03/22 03:58:08;;;;;;;31.00;17.00;;;;;;;5.58;89.25;101586.14;107616;1254;112231;-62
2024/03/22 04:00:36;;;;;;;37.10;16.90;;;;;;;5.56;89.04;101588.17;107607;1254;108295;-62
2024/03/22 04:03:06;;;;;;;31.30;17.20;;;;;;;5.56;89.06;101591.56;107602;1251;108418;-64
2024/03/22 04:05:34;;;;;;;32.40;17.40;;;;;;;5.58;89.38;101591.27;107561;1251;99422;-64
2024/03/22 04:08:02;;;;;;;36.80;17.70;;;;;;;5.59;89.42;101593.91;107433;1254;99789;-63
2024/03/22 04:10:31;;;;;;;36.20;18.30;;;;;;;5.60;89.41;101591.73;107599;1253;112613;-64
2024/03/22 04:12:59;;;;;;;41.60;20.60;;;;;;;5.60;89.26;101591.50;107522;1253;106794;-63
2024/03/22 04:15:27;;;;;;;34.80;18.40;;;;;;;5.61;89.57;101592.73;107526;1251;107395;-64
2024/03/22 04:17:57;;;;;;;36.10;18.60;;;;;;;5.63;89.57;101589.38;107508;1251;99281;-63
2024/03/22 04:20:24;;;;;;;37.30;17.50;;;;;;;5.68;89.85;101590.78;107643;1251;99739;-64
2024/03/22 04:22:53;;;;;;;34.00;18.00;;;;;;;5.70;89.88;101591.69;107515;1251;112361;-63
2024/03/22 04:25:21;;;;;;;38.70;18.30;;;;;;;5.72;89.79;101593.38;107554;1254;108347;-63
2024/03/22 04:27:50;;;;;;;36.30;18.70;;;;;;;5.75;89.66;101594.64;107524;1256;108207;-64
2024/03/22 04:30:18;;;;;;;37.30;18.00;;;;;;;5.77;89.53;101594.69;107574;1253;99182;-63
2024/03/22 04:32:47;;;;;;;38.60;18.90;;;;;;;5.80;89.45;101598.61;107422;1253;99211;-64
2024/03/22 04:35:15;;;;;;;35.20;17.70;;;;;;;5.80;89.18;101599.50;107594;1254;112538;-63
2024/03/22 04:37:44;;;;;;;37.60;18.60;;;;;;;5.80;88.96;101599.52;107468;1254;108676;-62
2024/03/22 04:40:12;;;;;;;31.20;18.30;;;;;;;5.81;88.97;101600.38;107608;1253;107057;-65
2024/03/22 04:42:41;;;;;;;31.20;16.30;;;;;;;5.81;88.64;101603.95;107532;1254;99307;-63
2024/03/22 04:45:09;;;;;;;30.50;15.40;;;;;;;5.79;88.71;101601.90;107534;1253;99633;-63
2024/03/22 04:47:37;;;;;;;36.40;17.20;;;;;;;5.78;88.62;101602.82;107542;1253;112428;-62
2024/03/22 04:50:07;;;;;;;35.70;16.50;;;;;;;5.80;88.83;101606.83;107598;1254;108336;-63
2024/03/22 04:52:35;;;;;;;32.60;17.70;;;;;;;5.83;89.06;101605.10;107624;1253;108603;-64
2024/03/22 04:55:04;;;;;;;34.10;18.60;;;;;;;5.86;88.98;101606.13;107572;1253;99323;-63
2024/03/22 04:57:32;;;;;;;36.70;19.20;;;;;;;5.90;89.33;101606.79;107559;1251;99760;-63
2024/03/22 05:00:01;;;;;;;37.50;20.30;;;;;;;5.94;89.23;101607.98;107550;1253;113514;-63
2024/03/22 05:02:29;;;;;;;39.30;20.60;;;;;;;5.99;89.17;101609.90;107631;1254;108857;-63
2024/03/22 05:04:58;;;;;;;35.10;18.90;;;;;;;6.04;89.04;101610.73;107653;1250;108332;-63
2024/03/22 05:07:26;;;;;;;34.60;19.10;;;;;;;6.08;88.96;101610.48;107518;1251;99204;-64
2024/03/22 05:09:54;;;;;;;36.80;19.10;;;;;;;6.11;88.85;101610.30;107580;1251;99057;-65
2024/03/22 05:12:22;;;;;;;33.40;17.10;;;;;;;6.14;88.77;101607.84;107585;1251;113197;-64
2024/03/22 05:14:51;;;;;;;38.60;19.60;;;;;;;6.18;88.92;101607.23;107574;1250;108289;-64
2024/03/22 05:17:19;;;;;;;40.90;19.00;;;;;;;6.23;88.60;101608.75;107568;1253;108138;-63
2024/03/22 05:19:47;;;;;;;31.40;17.00;;;;;;;6.29;88.76;101611.81;107555;1254;99292;-63
2024/03/22 05:22:15;;;;;;;42.60;19.60;;;;;;;6.35;88.85;101604.54;107592;1253;99079;-62
2024/03/22 05:24:44;;;;;;;39.50;20.50;;;;;;;6.40;88.76;101605.45;107583;1254;112822;-64
2024/03/22 05:27:12;;;;;;;39.10;21.00;;;;;;;6.45;88.62;101603.40;107654;1251;108060;-64
2024/03/22 05:29:41;;;;;;;40.70;20.90;;;;;;;6.49;88.40;101607.81;107509;1251;107857;-62
2024/03/22 05:32:09;;;;;;;42.30;23.50;;;;;;;6.54;88.21;101605.38;107516;1251;99201;-66
2024/03/22 05:34:38;;;;;;;36.50;21.40;;;;;;;6.60;88.25;101607.35;107601;1251;99205;-66
2024/03/22 05:37:06;;;;;;;38.90;21.70;;;;;;;6.65;88.12;101605.14;107610;1251;113165;-65
2024/03/22 05:39:34;;;;;;;41.30;20.40;;;;;;;6.68;88.05;101605.78;107619;1254;107500;-65
2024/03/22 05:42:02;;;;;;;43.50;22.00;;;;;;;6.75;88.09;101608.29;107577;1251;108659;-67
2024/03/22 05:44:31;;;;;;;38.80;21.60;;;;;;;6.80;88.17;101610.27;107651;1251;99183;-63
2024/03/22 05:46:59;;;;;;;38.10;20.30;;;;;;;6.87;88.07;101608.80;107593;1251;99185;-63
2024/03/22 05:49:27;;;;;;;36.50;20.50;;;;;;;6.92;87.80;101614.39;107640;1252;113248;-63
2024/03/22 05:51:55;;;;;;;39.50;21.10;;;;;;;6.98;87.70;101610.30;107616;1254;107685;-63
2024/03/22 05:54:23;;;;;;;41.90;22.20;;;;;;;7.04;87.47;101611.52;107614;1254;109136;-63
2024/03/22 05:56:51;;;;;;;35.50;20.00;;;;;;;7.08;87.05;101617.73;107630;1254;99193;-63
2024/03/22 05:59:19;;;;;;;31.50;18.90;;;;;;;7.08;86.86;101622.69;107634;1251;99063;-63
2024/03/22 06:01:47;;;;;;;35.40;19.50;;;;;;;7.10;86.83;101620.08;107482;1251;113535;-62
2024/03/22 06:04:15;;;;;;;35.70;21.20;;;;;;;7.12;86.73;101626.03;107474;1250;109119;-63
2024/03/22 06:06:44;;;;;;;38.10;21.30;;;;;;;7.17;86.71;101621.96;107475;1251;108267;-66
2024/03/22 06:09:13;;;;;;;38.70;20.50;;;;;;;7.25;86.68;101624.58;107610;1253;99307;-63
2024/03/22 06:11:43;;;;;;;48.20;20.80;;;;;;;7.32;86.80;101630.20;107606;1250;100850;-63
2024/03/22 06:14:12;;;;;;;37.90;20.10;;;;;;;7.33;86.60;101632.10;107537;1251;113866;-62
2024/03/22 06:16:40;;;;;;;37.50;20.60;;;;;;;7.33;86.40;101630.30;107548;1250;107731;-62
2024/03/22 06:19:08;;;;;;;39.00;21.30;;;;;;;7.31;85.84;101634.18;107627;1250;108616;-63
2024/03/22 06:21:36;;;;;;;38.60;20.60;;;;;;;7.31;85.92;101636.64;107445;1251;99266;-62
2024/03/22 06:24:04;;;;;;;30.40;17.90;;;;;;;7.29;85.09;101637.86;107567;1254;99424;-63
2024/03/22 06:26:33;;;;;;;28.40;17.20;;;;;;;7.25;84.41;101639.71;107716;1253;112779;-62
2024/03/22 06:29:09;;;;;;;38.70;18.10;;;;;;;7.21;84.42;101644.23;107576;1254;107750;-64
2024/03/22 06:31:37;;;;;;;32.80;17.30;;;;;;;7.21;84.65;101647.27;107595;1254;108690;-67
2024/03/22 06:34:05;;;;;;;36.70;16.60;;;;;;;7.24;84.90;101648.52;107564;1252;99253;-64
2024/03/22 06:36:34;;;;;;;30.90;17.60;;;;;;;7.32;85.07;101644.45;107418;1251;99304;-64
2024/03/22 06:39:06;;;;;;;33.00;17.50;;;;;;;7.41;84.75;101644.61;107420;1254;113362;-63
2024/03/22 06:41:34;;;;;;;31.60;17.60;;;;;;;7.44;84.30;101647.64;107424;1250;106417;-64
2024/03/22 06:44:02;;;;;;;31.90;17.00;;;;;;;7.54;84.92;101650.43;107476;1254;109293;-63
2024/03/22 06:46:31;;;;;;;28.40;16.90;;;;;;;7.61;84.71;101655.73;107516;1252;99186;-63
2024/03/22 06:48:59;;;;;;;29.70;16.80;;;;;;;7.64;84.52;101655.04;107567;1255;99178;-63
2024/03/22 06:51:27;;;;;;;26.40;16.70;;;;;;;7.67;84.59;101655.91;107506;1256;113642;-63
2024/03/22 06:53:55;;;;;;;41.40;20.30;;;;;;;7.68;84.25;101655.64;107504;1254;107079;-62
2024/03/22 06:56:25;;;;;;;43.20;20.20;;;;;;;7.66;84.21;101652.54;107515;1253;108245;-64
2024/03/22 06:58:53;;;;;;;36.90;18.70;;;;;;;7.69;84.11;101653.44;107492;1255;99173;-65
2024/03/22 07:01:21;;;;;;;29.10;17.40;;;;;;;7.73;83.60;101656.08;107465;1254;99067;-64
2024/03/22 07:03:49;;;;;;;34.00;19.20;;;;;;;7.71;82.86;101657.05;107435;1250;112096;-63
2024/03/22 07:06:17;;;;;;;35.00;17.00;;;;;;;7.72;82.72;101654.89;107430;1250;107457;-63
2024/03/22 07:08:45;;;;;;;45.50;22.10;;;;;;;7.77;82.57;101652.26;107416;1251;107547;-63
2024/03/22 07:11:14;;;;;;;45.40;21.80;;;;;;;7.77;81.82;101651.85;107447;1251;99230;-63
2024/03/22 07:13:42;;;;;;;49.30;23.30;;;;;;;7.82;82.42;101652.29;107397;1251;99735;-66
2024/03/22 07:16:10;;;;;;;43.80;20.60;;;;;;;7.91;82.66;101654.23;107437;1251;113078;-66
2024/03/22 07:18:38;;;;;;;27.70;16.90;;;;;;;7.98;82.16;101652.70;107472;1256;107446;-67
2024/03/22 07:21:07;;;;;;;27.00;15.90;;;;;;;8.02;82.12;101649.95;107479;1251;107114;-67
2024/03/22 07:23:37;;;;;;;28.80;16.00;;;;;;;8.13;82.18;101652.13;107468;1250;99272;-66
2024/03/22 07:26:07;;;;;;;27.60;16.20;;;;;;;8.25;82.30;101654.05;107438;1251;99726;-65
2024/03/22 07:28:38;;;;;;;31.90;16.60;;;;;;;8.32;81.16;101653.25;107471;1251;113442;-67
2024/03/22 07:31:07;;;;;;;27.90;16.20;;;;;;;8.41;81.45;101658.70;107445;1251;108329;-64
2024/03/22 07:33:35;;;;;;;29.00;16.20;;;;;;;8.46;80.79;101655.73;107447;1254;107709;-64
2024/03/22 07:36:04;;;;;;;35.80;15.30;;;;;;;8.48;81.07;101659.54;107459;1253;99809;-65
2024/03/22 07:38:32;;;;;;;33.10;16.50;;;;;;;8.58;81.11;101652.48;107558;1254;99069;-65
2024/03/22 07:41:00;;;;;;;27.70;15.90;;;;;;;8.71;80.49;101655.03;107526;1253;112642;-63
2024/03/22 07:43:28;;;;;;;32.40;16.50;;;;;;;8.81;79.68;101659.70;107539;1251;108059;-64
2024/03/22 07:45:57;;;;;;;26.00;15.50;;;;;;;8.94;79.22;101656.31;107473;1251;107115;-64
2024/03/22 07:48:25;;;;;;;27.20;15.30;;;;;;;9.13;79.02;101653.65;107445;1251;99160;-63
2024/03/22 07:51:00;;;;;;;23.50;15.10;;;;;;;9.27;78.66;101655.92;107543;1256;99355;-63
2024/03/22 07:53:30;;;;;;;29.50;15.30;;;;;;;9.40;78.27;101654.27;107540;1254;112233;-64
2024/03/22 07:56:00;;;;;;;21.40;14.10;;;;;;;9.46;77.33;101656.91;107573;1254;107346;-64
2024/03/22 07:58:28;;;;;;;19.80;12.50;;;;;;;9.54;77.55;101654.56;106727;1251;1046847;-63
2024/03/22 08:00:57;;;;;;;19.20;11.70;;;;;;;9.65;76.95;101657.04;107477;1251;99186;-63
2024/03/22 08:03:25;;;;;;;18.10;11.80;;;;;;;9.70;75.80;101659.55;107556;1251;99720;-63
2024/03/22 08:05:53;;;;;;;17.60;11.10;;;;;;;9.72;74.42;101654.38;107459;1253;113608;-63
2024/03/22 08:08:22;;;;;;;16.80;11.30;;;;;;;9.74;73.69;101656.75;107481;1254;107642;-64
2024/03/22 08:10:50;;;;;;;22.40;13.10;;;;;;;9.70;73.79;101654.91;107479;1251;108934;-64
2024/03/22 08:13:19;;;;;;;18.30;10.40;;;;;;;9.62;73.95;101651.10;107498;1250;99077;-65
2024/03/22 08:15:48;;;;;;;15.50;10.50;;;;;;;9.59;74.18;101651.42;107510;1251;99174;-64
2024/03/22 08:18:16;;;;;;;17.60;11.40;;;;;;;9.63;74.27;101645.90;107455;1254;112579;-64
2024/03/22 08:20:44;;;;;;;23.20;12.90;;;;;;;9.78;74.49;101644.10;107494;1251;108241;-65
2024/03/22 08:23:13;;;;;;;22.20;12.60;;;;;;;9.92;74.21;101639.35;107500;1250;108008;-65
2024/03/22 08:25:42;;;;;;;18.30;11.70;;;;;;;10.08;73.47;101639.98;107533;1251;99250;-62
2024/03/22 08:28:10;;;;;;;19.20;11.80;;;;;;;10.24;73.15;101639.59;107536;1251;99288;-65
2024/03/22 08:30:49;;;;;;;21.10;11.70;;;;;;;10.31;72.74;101636.52;107506;1253;112073;-63
2024/03/22 08:33:19;;;;;;;16.40;10.00;;;;;;;10.34;72.62;101635.41;107508;1251;107644;-64
2024/03/22 08:35:48;;;;;;;14.20;10.00;;;;;;;10.36;70.72;101634.17;107499;1251;107872;-64
2024/03/22 08:38:17;;;;;;;21.00;11.90;;;;;;;10.32;69.28;101630.89;107442;1251;99176;-64
2024/03/22 08:40:48;;;;;;;27.40;11.60;;;;;;;10.28;70.31;101634.61;107500;1251;99210;-64
2024/03/22 08:43:16;;;;;;;18.30;10.90;;;;;;;10.30;70.82;101628.88;107495;1254;112530;-65
2024/03/22 08:45:44;;;;;;;17.20;11.10;;;;;;;10.30;70.17;101624.41;107577;1251;108785;-63
2024/03/22 08:48:13;;;;;;;21.70;11.60;;;;;;;10.25;70.53;101622.80;107517;1251;108208;-64
2024/03/22 08:50:44;;;;;;;17.10;10.90;;;;;;;10.40;70.47;101619.76;107515;1251;99182;-64
2024/03/22 08:53:13;;;;;;;14.80;10.40;;;;;;;10.65;70.22;101619.71;107689;1251;99149;-63
2024/03/22 08:55:47;;;;;;;18.00;9.80;;;;;;;10.87;69.52;101623.22;107581;1251;112563;-63
2024/03/22 08:58:17;;;;;;;17.10;9.60;;;;;;;11.09;68.20;101620.12;107591;1251;108657;-67
2024/03/22 09:00:45;;;;;;;12.00;8.30;;;;;;;11.24;67.20;101620.93;107525;1252;108618;-65
2024/03/22 09:03:14;;;;;;;13.50;8.80;;;;;;;11.41;66.35;101622.91;107487;1254;99308;-64
2024/03/22 09:05:43;;;;;;;17.60;9.10;;;;;;;11.62;66.63;101618.53;107584;1251;99157;-63
2024/03/22 09:08:29;;;;;;;10.90;7.80;;;;;;;11.68;65.09;101621.13;107552;1252;113650;-63
2024/03/22 09:10:57;;;;;;;16.00;7.50;;;;;;;11.69;65.27;101618.92;107460;1254;107855;-63
2024/03/22 09:13:25;;;;;;;14.50;8.20;;;;;;;11.70;64.71;101612.70;107468;1251;108485;-63
2024/03/22 09:16:00;;;;;;;15.00;7.90;;;;;;;11.64;63.58;101613.35;107494;1251;99153;-64
2024/03/22 09:18:28;;;;;;;12.30;7.50;;;;;;;11.54;63.05;101614.70;107519;1251;99739;-64
2024/03/22 09:20:56;;;;;;;14.10;8.70;;;;;;;11.84;63.29;101609.60;107545;1251;113773;-65
2024/03/22 09:23:25;;;;;;;16.80;7.80;;;;;;;12.33;61.92;101607.95;107497;1250;107522;-63
2024/03/22 09:25:53;;;;;;;33.80;9.10;;;;;;;12.85;61.99;101604.05;107487;1251;108471;-64
2024/03/22 09:28:21;;;;;;;18.70;9.30;;;;;;;13.42;60.27;101600.59;107477;1251;99236;-63
2024/03/22 09:30:49;;;;;;;12.40;8.80;;;;;;;14.09;57.61;101594.10;107530;1251;99767;-65
2024/03/22 09:33:25;;;;;;;12.50;7.90;;;;;;;14.92;52.68;101587.33;107580;1251;112640;-65
2024/03/22 09:35:54;;;;;;;10.60;7.50;;;;;;;15.40;54.72;101589.27;107536;1250;108804;-64
2024/03/22 09:38:22;;;;;;;11.20;7.70;;;;;;;15.70;54.95;101589.98;107567;1250;107332;-64
2024/03/22 09:40:54;;;;;;;9.10;6.60;;;;;;;15.91;51.84;101590.75;107457;1251;99279;-65
2024/03/22 09:43:22;;;;;;;10.40;6.80;;;;;;;16.53;50.90;101589.80;107478;1254;99096;-64
2024/03/22 09:45:51;;;;;;;9.50;7.00;;;;;;;17.35;51.83;101582.06;107500;1250;113414;-64
2024/03/22 09:48:20;;;;;;;14.30;6.90;;;;;;;18.21;50.37;101576.91;107510;1250;107289;-64
2024/03/22 09:50:53;;;;;;;16.40;7.90;;;;;;;18.89;48.97;101572.27;107444;1251;107870;-63
2024/03/22 09:53:25;;;;;;;12.90;7.20;;;;;;;19.62;46.94;101572.46;107483;1251;99185;-63
2024/03/22 09:55:57;;;;;;;12.30;7.00;;;;;;;20.18;45.45;101573.98;107503;1251;99079;-64
2024/03/22 09:58:27;;;;;;;13.60;7.10;;;;;;;20.76;44.19;101570.33;107495;1251;111904;-64
2024/03/22 10:01:00;;;;;;;14.70;7.10;;;;;;;21.31;43.50;101564.33;107579;1250;108545;-63
2024/03/22 10:03:29;;;;;;;19.80;7.40;;;;;;;21.92;38.14;101561.85;107463;1251;107575;-63
2024/03/22 10:05:58;;;;;;;30.80;7.90;;;;;;;22.10;37.76;101563.48;107492;1254;99166;-64
2024/03/22 10:08:26;;;;;;;16.30;7.00;;;;;;;22.29;39.07;101560.36;107531;1251;99175;-63
2024/03/22 10:10:54;;;;;;;12.60;6.90;;;;;;;21.81;40.11;101562.30;107534;1251;113468;-64
2024/03/22 10:13:22;;;;;;;9.90;6.50;;;;;;;21.23;39.78;101557.23;107500;1251;108460;-64
2024/03/22 10:15:51;;;;;;;11.30;6.10;;;;;;;21.23;40.11;101551.52;107493;1251;108366;-63
2024/03/22 10:18:19;;;;;;;10.90;6.70;;;;;;;21.73;39.16;101547.08;107528;1252;99202;-63
2024/03/22 10:20:47;;;;;;;14.20;6.50;;;;;;;22.51;36.48;101534.48;107468;1250;99726;-63
2024/03/22 10:23:15;;;;;;;13.50;5.90;;;;;;;23.03;36.09;101533.13;107480;1254;112202;-64
2024/03/22 10:25:43;;;;;;;17.10;6.30;;;;;;;23.62;34.47;101527.89;107468;1255;107773;-65
2024/03/22 10:28:13;;;;;;;14.40;4.10;;;;;;;24.14;32.49;101522.68;107476;1253;107047;-62
2024/03/22 10:30:43;;;;;;;6.60;3.80;;;;;;;24.55;31.20;101519.31;107495;1253;99271;-64
2024/03/22 10:33:12;;;;;;;5.30;3.40;;;;;;;24.89;30.96;101513.80;107519;1254;99068;-63
2024/03/22 10:35:41;;;;;;;6.70;4.30;;;;;;;25.19;30.28;101507.98;107515;1253;112703;-64
2024/03/22 10:38:12;;;;;;;7.80;4.60;;;;;;;25.02;29.26;101504.65;107537;1253;107886;-63
2024/03/22 10:40:46;;;;;;;15.70;5.50;;;;;;;23.75;30.09;101506.81;107539;1254;108563;-66
2024/03/22 10:43:15;;;;;;;13.00;6.10;;;;;;;22.90;32.25;101503.07;107451;1256;99343;-63
2024/03/22 10:45:48;;;;;;;12.10;5.00;;;;;;;22.73;33.17;101500.20;107584;1251;99310;-64
2024/03/22 10:48:18;;;;;;;10.30;4.80;;;;;;;23.07;33.29;101499.05;107550;1251;112269;-63
2024/03/22 10:50:47;;;;;;;9.20;4.90;;;;;;;23.16;32.52;101494.73;107561;1251;107115;-63
2024/03/22 10:53:24;;;;;;;9.50;4.80;;;;;;;23.26;32.19;101487.30;107517;1251;108587;-63
2024/03/22 10:55:55;;;;;;;6.80;5.10;;;;;;;23.82;31.68;101483.56;107504;1251;99291;-64
2024/03/22 10:58:24;;;;;;;10.20;4.80;;;;;;;23.99;32.46;101478.83;107495;1251;99784;-68
2024/03/22 11:00:54;;;;;;;9.00;4.30;;;;;;;24.59;30.37;101473.48;107515;1250;113134;-64
2024/03/22 11:03:24;;;;;;;15.40;6.10;;;;;;;25.15;30.44;101466.27;107520;1251;108740;-64
2024/03/22 11:05:57;;;;;;;11.50;5.90;;;;;;;25.72;29.29;101462.54;107517;1251;107564;-65
2024/03/22 11:08:29;;;;;;;6.50;4.80;;;;;;;25.79;29.18;101460.20;107526;1251;99262;-63
2024/03/22 11:10:58;;;;;;;7.40;5.70;;;;;;;25.53;29.34;101455.52;107577;1251;99058;-63